Time;durP1;ratioP1;P1;durP2;ratioP2;P2;SDS_P1;SDS_P2;PMS_P1;PMS_P2;Temp;Humidity;BMP_temperature;BMP_pressure;BME280_temperature;BME280_humidity;BME280_pressure;Samples;Min_cycle;Max_cycle;Signal;HPM_P1;HPM_P2
2021/05/25 00:00:17;;;;;;;4.57;4.13;;;;;21.50;99781.00;;;;2046746;28;20219;-49
2021/05/25 00:01:17;;;;;;;4.82;4.22;;;;;21.50;99782.00;;;;2050020;28;20225;-52
2021/05/25 00:02:18;;;;;;;5.50;4.07;;;;;21.50;99781.00;;;;2054888;28;20243;-50
2021/05/25 00:03:19;;;;;;;4.80;4.30;;;;;21.50;99777.00;;;;2055216;28;20576;-51
2021/05/25 00:04:19;;;;;;;4.13;3.73;;;;;21.50;99782.00;;;;2055070;28;20220;-51
2021/05/25 00:05:25;;;;;;;4.17;3.60;;;;;21.50;99778.00;;;;2054985;28;20453;-50
2021/05/25 00:06:25;;;;;;;4.25;3.10;;;;;21.50;99774.00;;;;2055041;28;20285;-50
2021/05/25 00:07:25;;;;;;;4.10;3.53;;;;;21.50;99778.00;;;;2054840;28;20229;-52
2021/05/25 00:08:26;;;;;;;3.93;3.53;;;;;21.50;99780.00;;;;2054402;28;20314;-52
2021/05/25 00:09:26;;;;;;;4.73;3.77;;;;;21.50;99776.00;;;;2054592;28;20249;-51
2021/05/25 00:10:30;;;;;;;3.97;3.57;;;;;21.50;99782.00;;;;2049697;28;20218;-52
2021/05/25 00:11:30;;;;;;;4.53;3.85;;;;;21.50;99782.00;;;;2048642;28;20244;-51
2021/05/25 00:12:31;;;;;;;3.50;3.10;;;;;21.50;99786.00;;;;2040538;29;20243;-52
2021/05/25 00:13:31;;;;;;;3.23;2.93;;;;;21.50;99788.00;;;;2038778;29;20606;-52
2021/05/25 00:14:31;;;;;;;3.13;2.83;;;;;21.50;99790.00;;;;2052475;28;20316;-52
2021/05/25 00:15:33;;;;;;;3.50;3.20;;;;;21.50;99782.00;;;;2055030;28;20261;-52
2021/05/25 00:16:33;;;;;;;3.35;3.05;;;;;21.50;99784.00;;;;2054776;28;20225;-56
2021/05/25 00:17:34;;;;;;;3.33;3.03;;;;;21.40;99779.00;;;;2054702;28;20309;-53
2021/05/25 00:18:34;;;;;;;3.83;3.40;;;;;21.40;99786.00;;;;2046457;28;20271;-51
2021/05/25 00:19:34;;;;;;;3.73;3.00;;;;;21.40;99784.00;;;;2045208;29;20737;-46
2021/05/25 00:20:35;;;;;;;2.93;2.63;;;;;21.40;99784.00;;;;2054236;28;20217;-51
2021/05/25 00:21:35;;;;;;;3.53;2.83;;;;;21.40;99783.00;;;;2053528;28;20702;-52
2021/05/25 00:22:36;;;;;;;3.83;3.17;;;;;21.40;99732.00;;;;2054174;28;20686;-52
2021/05/25 00:23:36;;;;;;;3.53;3.10;;;;;21.40;99781.00;;;;2054388;28;20596;-51
2021/05/25 00:24:36;;;;;;;3.30;2.90;;;;;21.40;99777.00;;;;2054226;28;20218;-49
2021/05/25 00:25:37;;;;;;;3.30;3.00;;;;;21.40;99781.00;;;;2054423;28;20682;-49
2021/05/25 00:26:37;;;;;;;4.17;3.30;;;;;21.40;99780.00;;;;2054696;28;20704;-51
2021/05/25 00:27:38;;;;;;;3.13;2.53;;;;;21.40;99779.00;;;;2053590;28;20701;-51
2021/05/25 00:28:39;;;;;;;3.20;2.80;;;;;21.40;99788.00;;;;2054184;28;20593;-52
2021/05/25 00:29:39;;;;;;;4.23;2.70;;;;;21.40;99794.00;;;;2054080;28;20476;-50
2021/05/25 00:30:39;;;;;;;2.43;2.23;;;;;21.40;99784.00;;;;2054416;28;20741;-51
2021/05/25 00:31:41;;;;;;;2.60;2.40;;;;;21.40;99790.00;;;;2053501;28;20681;-52
2021/05/25 00:32:42;;;;;;;2.65;2.45;;;;;21.40;99795.00;;;;2054184;28;20222;-50
2021/05/25 00:33:42;;;;;;;3.00;2.35;;;;;21.40;99793.00;;;;2045643;29;20868;-51
2021/05/25 00:34:42;;;;;;;2.73;2.50;;;;;21.40;99791.00;;;;2044932;29;20330;-50
2021/05/25 00:35:43;;;;;;;2.67;2.47;;;;;21.40;99755.00;;;;2054323;28;20226;-50
2021/05/25 00:36:43;;;;;;;2.90;2.60;;;;;21.40;99800.00;;;;2054075;28;20648;-50
2021/05/25 00:37:44;;;;;;;2.73;2.53;;;;;21.40;99792.00;;;;2054269;28;20225;-52
2021/05/25 00:38:44;;;;;;;3.03;2.50;;;;;21.40;99787.00;;;;2054109;28;20235;-51
2021/05/25 00:39:44;;;;;;;2.70;2.43;;;;;21.40;99791.00;;;;2051582;28;20238;-52
2021/05/25 00:40:45;;;;;;;2.70;2.47;;;;;21.40;99796.00;;;;2047836;28;20252;-52
2021/05/25 00:41:45;;;;;;;2.60;2.00;;;;;21.40;99795.00;;;;2047186;28;20229;-49
2021/05/25 00:42:45;;;;;;;2.63;2.40;;;;;21.40;99792.00;;;;2046280;28;20236;-50
2021/05/25 00:43:46;;;;;;;2.47;2.27;;;;;21.40;99794.00;;;;2046293;28;20226;-52
2021/05/25 00:44:46;;;;;;;2.40;2.17;;;;;21.40;99793.00;;;;2046349;28;20610;-51
2021/05/25 00:45:47;;;;;;;2.17;1.97;;;;;21.40;99800.00;;;;2045751;28;20233;-52
2021/05/25 00:46:47;;;;;;;2.53;1.90;;;;;21.40;99801.00;;;;2046340;28;20253;-52
2021/05/25 00:47:47;;;;;;;2.77;2.50;;;;;21.40;99796.00;;;;2046130;28;20312;-49
2021/05/25 00:48:48;;;;;;;2.83;2.30;;;;;21.40;99800.00;;;;2046045;28;20869;-51
2021/05/25 00:49:48;;;;;;;2.33;1.90;;;;;21.40;99794.00;;;;2043243;28;20249;-50
2021/05/25 00:50:48;;;;;;;1.70;1.60;;;;;21.40;99798.00;;;;2044381;28;20225;-52
2021/05/25 00:51:49;;;;;;;1.83;1.60;;;;;21.40;99800.00;;;;2045592;28;20225;-51
2021/05/25 00:52:51;;;;;;;2.27;2.00;;;;;21.40;99797.00;;;;2046376;28;20623;-52
2021/05/25 00:53:51;;;;;;;2.17;1.52;;;;;21.40;99802.00;;;;2050422;28;20220;-51
2021/05/25 00:54:51;;;;;;;2.60;2.00;;;;;21.30;99803.00;;;;2053826;28;20566;-49
2021/05/25 00:55:52;;;;;;;2.43;2.23;;;;;21.40;99807.00;;;;2054084;28;20213;-50
2021/05/25 00:56:52;;;;;;;2.60;1.90;;;;;21.40;99808.00;;;;2053901;28;20244;-51
2021/05/25 00:57:54;;;;;;;2.70;1.90;;;;;21.40;99806.00;;;;2051266;28;20295;-49
2021/05/25 00:58:54;;;;;;;2.13;1.92;;;;;21.40;99801.00;;;;2049762;28;20225;-50
2021/05/25 00:59:54;;;;;;;2.60;2.00;;;;;21.30;99806.00;;;;2050428;28;20359;-51
2021/05/25 01:00:55;;;;;;;2.60;1.57;;;;;21.30;99810.00;;;;2049915;28;20222;-50
2021/05/25 01:01:55;;;;;;;2.37;1.90;;;;;21.30;99808.00;;;;2046602;28;20214;-51
2021/05/25 01:02:55;;;;;;;1.73;1.63;;;;;21.30;99804.00;;;;2046771;28;20301;-52
2021/05/25 01:03:56;;;;;;;2.30;2.10;;;;;21.30;99806.00;;;;2046561;28;20313;-49
2021/05/25 01:04:56;;;;;;;1.70;1.60;;;;;21.30;99799.00;;;;2046670;28;20212;-51
2021/05/25 01:05:56;;;;;;;2.20;1.73;;;;;21.30;99799.00;;;;2046708;28;20223;-51
2021/05/25 01:06:57;;;;;;;2.20;2.00;;;;;21.30;99800.00;;;;2046564;28;20694;-52
2021/05/25 01:07:58;;;;;;;2.17;1.97;;;;;21.30;99799.00;;;;2045588;28;20686;-52
2021/05/25 01:09:00;;;;;;;1.60;1.50;;;;;21.30;99804.00;;;;2046399;28;20221;-51
2021/05/25 01:10:03;;;;;;;2.42;1.65;;;;;21.30;99801.00;;;;2046353;28;20210;-51
2021/05/25 01:11:06;;;;;;;1.80;1.50;;;;;21.30;99802.00;;;;2045901;28;20248;-51
2021/05/25 01:12:08;;;;;;;2.13;1.77;;;;;21.30;99799.00;;;;2046450;28;20217;-48
2021/05/25 01:13:11;;;;;;;2.05;1.85;;;;;21.30;99795.00;;;;2046457;28;20214;-49
2021/05/25 01:14:12;;;;;;;2.42;1.60;;;;;21.30;99800.00;;;;2046610;28;20204;-50
2021/05/25 01:15:14;;;;;;;1.85;1.65;;;;;21.30;99799.00;;;;2046456;28;20221;-53
2021/05/25 01:16:14;;;;;;;2.08;1.40;;;;;21.30;99797.00;;;;2038281;28;20219;-49
2021/05/25 01:17:15;;;;;;;1.40;1.30;;;;;21.30;99803.00;;;;2041716;29;20607;-51
2021/05/25 01:18:15;;;;;;;2.03;1.43;;;;;21.30;99801.00;;;;2039821;29;20745;-51
2021/05/25 01:19:16;;;;;;;1.30;1.20;;;;;21.30;99803.00;;;;2039674;29;20226;-51
2021/05/25 01:20:16;;;;;;;2.43;1.53;;;;;21.30;99806.00;;;;2046530;28;20212;-51
2021/05/25 01:21:17;;;;;;;2.00;1.40;;;;;21.30;99802.00;;;;2045809;28;20216;-49
2021/05/25 01:22:17;;;;;;;1.47;1.37;;;;;21.30;99800.00;;;;2046317;28;20209;-48
2021/05/25 01:23:17;;;;;;;1.67;1.30;;;;;21.30;99807.00;;;;2045887;29;20296;-51
2021/05/25 01:24:18;;;;;;;1.50;1.40;;;;;21.30;99808.00;;;;2045471;29;20243;-51
2021/05/25 01:25:18;;;;;;;1.27;1.17;;;;;21.30;99809.00;;;;2046623;28;20216;-52
2021/05/25 01:26:19;;;;;;;1.63;1.53;;;;;21.30;99830.00;;;;2046573;28;20241;-49
2021/05/25 01:27:19;;;;;;;1.37;1.20;;;;;21.30;99804.00;;;;2046521;28;20217;-51
2021/05/25 01:28:21;;;;;;;1.80;1.50;;;;;21.20;99810.00;;;;2046044;28;20704;-51
2021/05/25 01:29:21;;;;;;;1.50;1.40;;;;;21.30;99808.00;;;;2046175;28;20649;-51
2021/05/25 01:30:26;;;;;;;1.87;1.30;;;;;21.30;99818.00;;;;2046360;28;20217;-49
2021/05/25 01:31:26;;;;;;;1.60;1.10;;;;;21.20;99812.00;;;;2050429;28;20222;-50
2021/05/25 01:32:26;;;;;;;1.60;1.40;;;;;21.30;99806.00;;;;2054360;28;20299;-48
2021/05/25 01:33:29;;;;;;;2.03;1.33;;;;;21.30;99809.00;;;;2053994;28;20628;-51
2021/05/25 01:34:29;;;;;;;1.60;1.27;;;;;21.30;99807.00;;;;2053698;28;20212;-51
2021/05/25 01:35:30;;;;;;;1.87;1.33;;;;;21.20;99802.00;;;;2053930;28;20270;-51
2021/05/25 01:36:30;;;;;;;1.40;1.07;;;;;21.20;99808.00;;;;2053953;28;20215;-52
2021/05/25 01:37:30;;;;;;;1.33;1.23;;;;;21.20;99799.00;;;;2051730;28;20205;-52
2021/05/25 01:38:31;;;;;;;1.30;1.10;;;;;21.20;99812.00;;;;2053433;28;20694;-48
2021/05/25 01:39:31;;;;;;;1.90;1.50;;;;;21.20;99804.00;;;;2053991;28;20213;-49
2021/05/25 01:40:32;;;;;;;2.10;1.30;;;;;21.20;99803.00;;;;2053702;28;20245;-46
2021/05/25 01:41:32;;;;;;;1.27;1.10;;;;;21.20;99812.00;;;;2053124;28;20261;-51
2021/05/25 01:42:36;;;;;;;1.67;1.20;;;;;21.20;99808.00;;;;2053310;28;20713;-50
2021/05/25 01:43:37;;;;;;;1.95;1.27;;;;;21.20;99807.00;;;;2053828;28;20220;-52
2021/05/25 01:44:37;;;;;;;2.00;1.35;;;;;21.20;99809.00;;;;2054084;28;20682;-51
2021/05/25 01:45:38;;;;;;;2.23;1.57;;;;;21.20;99806.00;;;;2053928;28;20299;-51
2021/05/25 01:46:46;;;;;;;1.37;0.90;;;;;21.20;99811.00;;;;2051284;28;20220;-51
2021/05/25 01:47:46;;;;;;;1.30;1.13;;;;;21.20;99809.00;;;;2046398;28;20308;-51
2021/05/25 01:48:49;;;;;;;1.30;1.20;;;;;21.20;99817.00;;;;2046460;28;20287;-52
2021/05/25 01:49:49;;;;;;;1.45;1.15;;;;;21.20;99762.00;;;;2045961;28;20221;-57
2021/05/25 01:50:49;;;;;;;1.83;1.27;;;;;21.20;99819.00;;;;2046383;28;20619;-52
2021/05/25 01:51:51;;;;;;;1.00;0.90;;;;;21.20;99811.00;;;;2045659;28;20691;-55
2021/05/25 01:53:00;;;;;;;1.55;0.90;;;;;21.20;99811.00;;;;2046513;28;20324;-50
2021/05/25 01:54:00;;;;;;;1.38;1.08;;;;;21.20;99823.00;;;;2046103;28;20244;-52
2021/05/25 01:55:01;;;;;;;4.97;1.50;;;;;21.20;99826.00;;;;2046496;28;20210;-52
2021/05/25 01:56:01;;;;;;;1.47;1.30;;;;;21.20;99760.00;;;;2046584;28;20589;-52
2021/05/25 01:57:02;;;;;;;1.00;0.90;;;;;21.20;99826.00;;;;2045772;28;20284;-50
2021/05/25 01:58:08;;;;;;;1.23;1.00;;;;;21.20;99826.00;;;;2042709;28;20213;-51
2021/05/25 01:59:08;;;;;;;1.10;1.00;;;;;21.20;99820.00;;;;2046310;28;20247;-51
2021/05/25 02:00:09;;;;;;;1.57;1.10;;;;;21.20;99826.00;;;;2046107;28;20241;-51
2021/05/25 02:01:10;;;;;;;1.97;1.07;;;;;21.20;99826.00;;;;2045672;28;20214;-52
2021/05/25 02:02:11;;;;;;;1.00;0.88;;;;;21.20;99818.00;;;;2046466;28;21253;-51
2021/05/25 02:03:11;;;;;;;1.10;0.80;;;;;21.20;99836.00;;;;2045692;29;20225;-52
2021/05/25 02:04:12;;;;;;;0.83;0.60;;;;;21.20;99822.00;;;;2045945;29;20253;-48
2021/05/25 02:05:12;;;;;;;1.47;1.13;;;;;21.20;99820.00;;;;2046525;28;20697;-50
2021/05/25 02:06:12;;;;;;;1.33;0.83;;;;;21.20;99827.00;;;;2046350;28;20309;-51
2021/05/25 02:07:17;;;;;;;1.47;0.90;;;;;21.20;99820.00;;;;2046155;28;20263;-52
2021/05/25 02:08:18;;;;;;;1.00;0.93;;;;;21.10;99830.00;;;;2046044;28;20230;-46
2021/05/25 02:09:19;;;;;;;1.95;0.90;;;;;21.10;99821.00;;;;2046302;28;20222;-47
2021/05/25 02:10:35;;;;;;;1.83;0.90;;;;;21.10;99830.00;;;;2046496;28;20214;-51
2021/05/25 02:11:36;;;;;;;1.25;0.90;;;;;21.10;99824.00;;;;2050325;28;20224;-51
2021/05/25 02:12:37;;;;;;;0.80;0.60;;;;;21.20;99813.00;;;;2053439;28;20581;-51
2021/05/25 02:13:38;;;;;;;1.00;0.70;;;;;21.10;99825.00;;;;2054354;28;20217;-51
2021/05/25 02:14:39;;;;;;;2.50;0.90;;;;;21.10;99822.00;;;;2054262;28;20220;-47
2021/05/25 02:15:39;;;;;;;1.53;0.70;;;;;21.10;99817.00;;;;2054433;28;20240;-49
2021/05/25 02:16:40;;;;;;;1.43;0.83;;;;;21.10;99820.00;;;;2048223;28;20247;-52
2021/05/25 02:17:40;;;;;;;0.90;0.70;;;;;21.10;99819.00;;;;2044104;28;20392;-47
2021/05/25 02:18:47;;;;;;;0.87;0.67;;;;;21.10;99818.00;;;;2049422;28;20209;-50
2021/05/25 02:19:48;;;;;;;1.50;0.70;;;;;21.10;99823.00;;;;2047814;28;20578;-52
2021/05/25 02:20:49;;;;;;;0.90;0.70;;;;;21.10;99818.00;;;;2045432;28;20308;-48
2021/05/25 02:21:50;;;;;;;1.30;0.85;;;;;21.10;99826.00;;;;2044833;28;20701;-52
2021/05/25 02:22:50;;;;;;;1.23;0.80;;;;;21.10;99818.00;;;;2047158;28;20214;-49
2021/05/25 02:23:50;;;;;;;0.90;0.70;;;;;21.10;99812.00;;;;2047768;28;20222;-50
2021/05/25 02:24:51;;;;;;;2.00;0.87;;;;;21.10;99831.00;;;;2047258;28;20214;-51
2021/05/25 02:25:51;;;;;;;0.83;0.80;;;;;21.10;99824.00;;;;2047170;28;20224;-48
2021/05/25 02:26:51;;;;;;;1.33;0.80;;;;;21.10;99823.00;;;;2047365;28;20213;-48
2021/05/25 02:27:52;;;;;;;1.23;0.80;;;;;21.10;99821.00;;;;2047172;28;21125;-50
2021/05/25 02:28:52;;;;;;;1.10;0.80;;;;;21.10;99819.00;;;;2047154;28;20228;-50
2021/05/25 02:29:52;;;;;;;1.20;0.80;;;;;21.10;99830.00;;;;2047238;28;20304;-48
2021/05/25 02:30:53;;;;;;;1.13;0.63;;;;;21.10;99823.00;;;;2047213;28;20693;-50
2021/05/25 02:31:53;;;;;;;0.90;0.70;;;;;21.10;99831.00;;;;2037178;28;20216;-51
2021/05/25 02:32:57;;;;;;;1.10;0.60;;;;;21.10;99826.00;;;;2044431;28;20300;-52
2021/05/25 02:33:58;;;;;;;0.70;0.60;;;;;21.10;99825.00;;;;2047191;28;20226;-51
2021/05/25 02:34:58;;;;;;;0.80;0.63;;;;;21.10;99830.00;;;;2055403;28;20294;-51
2021/05/25 02:35:59;;;;;;;1.60;0.80;;;;;21.10;99830.00;;;;2055398;28;20231;-52
2021/05/25 02:36:59;;;;;;;0.90;0.70;;;;;21.10;99831.00;;;;2054819;28;20295;-50
2021/05/25 02:37:59;;;;;;;1.00;0.73;;;;;21.10;99826.00;;;;2052732;28;20208;-51
2021/05/25 02:39:00;;;;;;;1.10;0.87;;;;;21.10;99835.00;;;;2054331;28;20216;-51
2021/05/25 02:40:00;;;;;;;1.00;0.70;;;;;21.10;99831.00;;;;2055204;28;20283;-51
2021/05/25 02:41:01;;;;;;;0.93;0.60;;;;;21.00;99839.00;;;;2054300;28;20311;-48
2021/05/25 02:42:01;;;;;;;1.30;0.87;;;;;21.10;99834.00;;;;2055570;28;20929;-51
2021/05/25 02:43:02;;;;;;;1.37;0.70;;;;;21.10;99831.00;;;;2052794;28;20303;-48
2021/05/25 02:44:02;;;;;;;0.80;0.60;;;;;21.10;99823.00;;;;2055715;28;20212;-50
2021/05/25 02:45:04;;;;;;;1.10;0.60;;;;;21.10;99833.00;;;;2055198;28;20780;-50
2021/05/25 02:46:04;;;;;;;1.40;0.80;;;;;21.10;99836.00;;;;2055608;28;20224;-51
2021/05/25 02:47:05;;;;;;;1.00;0.60;;;;;21.10;99835.00;;;;2052039;28;20212;-52
2021/05/25 02:48:05;;;;;;;0.70;0.60;;;;;21.10;99833.00;;;;2047062;28;20279;-49
2021/05/25 02:49:05;;;;;;;0.80;0.60;;;;;21.10;99838.00;;;;2049112;28;20211;-50
2021/05/25 02:50:07;;;;;;;1.90;0.67;;;;;21.10;99837.00;;;;2047158;28;20237;-51
2021/05/25 02:51:07;;;;;;;1.23;0.80;;;;;21.10;99840.00;;;;2048775;28;20548;-50
2021/05/25 02:52:07;;;;;;;1.20;0.70;;;;;21.10;99839.00;;;;2055105;28;20231;-50
2021/05/25 02:53:08;;;;;;;1.33;0.73;;;;;21.10;99837.00;;;;2052851;28;20216;-52
2021/05/25 02:54:09;;;;;;;1.43;0.63;;;;;21.10;99826.00;;;;2055067;28;20263;-52
2021/05/25 02:55:11;;;;;;;0.70;0.50;;;;;21.10;99828.00;;;;2054492;28;20969;-51
2021/05/25 02:56:11;;;;;;;0.95;0.70;;;;;21.10;99833.00;;;;2046321;29;20352;-49
2021/05/25 02:57:12;;;;;;;0.70;0.60;;;;;21.10;99835.00;;;;2046527;29;20225;-51
2021/05/25 02:58:12;;;;;;;1.10;0.70;;;;;21.10;99838.00;;;;2052181;28;20262;-51
2021/05/25 02:59:12;;;;;;;0.90;0.60;;;;;21.00;99835.00;;;;2054794;28;20223;-52
2021/05/25 03:00:38;;;;;;;1.30;0.87;;;;;21.00;99843.00;;;;2055057;28;20355;-52
2021/05/25 03:01:39;;;;;;;1.90;0.80;;;;;21.00;99846.00;;;;2054260;28;20238;-47
2021/05/25 03:02:39;;;;;;;0.80;0.40;;;;;21.10;99848.00;;;;2052424;28;20307;-50
2021/05/25 03:03:39;;;;;;;1.67;0.60;;;;;21.00;99839.00;;;;2054967;28;20251;-51
2021/05/25 03:04:40;;;;;;;0.80;0.60;;;;;21.00;99843.00;;;;2054966;28;20273;-50
2021/05/25 03:05:41;;;;;;;2.50;0.90;;;;;21.00;99845.00;;;;2055280;28;20217;-52
2021/05/25 03:06:41;;;;;;;0.90;0.60;;;;;21.00;99837.00;;;;2055596;28;20267;-50
2021/05/25 03:07:41;;;;;;;1.20;0.60;;;;;21.00;99836.00;;;;2054950;28;20459;-50
2021/05/25 03:08:42;;;;;;;0.80;0.50;;;;;21.00;99842.00;;;;2054428;28;20275;-48
2021/05/25 03:09:42;;;;;;;1.20;0.70;;;;;21.00;99845.00;;;;2054874;28;20242;-50
2021/05/25 03:10:45;;;;;;;1.00;0.63;;;;;21.00;99841.00;;;;2049436;28;20229;-49
2021/05/25 03:11:45;;;;;;;1.05;0.50;;;;;21.00;99849.00;;;;2046017;28;20229;-51
2021/05/25 03:12:46;;;;;;;1.53;0.70;;;;;21.00;99848.00;;;;2047013;28;20220;-50
2021/05/25 03:13:47;;;;;;;1.43;0.60;;;;;21.00;99848.00;;;;2046644;28;20221;-50
2021/05/25 03:14:47;;;;;;;1.00;0.60;;;;;21.00;99846.00;;;;2046842;28;20598;-51
2021/05/25 03:15:48;;;;;;;0.77;0.70;;;;;21.00;99842.00;;;;2046911;28;20461;-52
2021/05/25 03:16:48;;;;;;;0.70;0.60;;;;;21.00;99845.00;;;;2050475;28;20229;-51
2021/05/25 03:17:48;;;;;;;1.00;0.80;;;;;21.00;99846.00;;;;2047314;28;20248;-51
2021/05/25 03:18:49;;;;;;;0.90;0.60;;;;;21.00;99846.00;;;;2046293;28;20221;-52
2021/05/25 03:19:49;;;;;;;1.60;0.67;;;;;21.00;99848.00;;;;2045961;29;20260;-51
2021/05/25 03:20:50;;;;;;;1.60;0.70;;;;;21.00;99842.00;;;;2055056;28;20205;-52
2021/05/25 03:21:52;;;;;;;0.73;0.50;;;;;21.00;99845.00;;;;2054705;28;20227;-49
2021/05/25 03:22:52;;;;;;;1.67;0.70;;;;;21.00;99847.00;;;;2044313;29;20279;-47
2021/05/25 03:23:54;;;;;;;0.83;0.60;;;;;21.00;99847.00;;;;2046222;28;20312;-52
2021/05/25 03:24:54;;;;;;;0.70;0.50;;;;;21.00;99842.00;;;;2054596;28;20224;-50
2021/05/25 03:25:56;;;;;;;0.70;0.50;;;;;21.00;99851.00;;;;2055158;28;20219;-50
2021/05/25 03:26:57;;;;;;;0.70;0.50;;;;;21.00;99844.00;;;;2054772;28;20327;-50
2021/05/25 03:27:57;;;;;;;0.80;0.50;;;;;21.00;99842.00;;;;2054619;28;20228;-52
2021/05/25 03:28:57;;;;;;;1.43;0.60;;;;;21.00;99832.00;;;;2054909;28;20701;-52
2021/05/25 03:29:58;;;;;;;1.00;0.63;;;;;21.00;99843.00;;;;2055424;28;20232;-51
2021/05/25 03:30:58;;;;;;;1.20;0.50;;;;;21.00;99839.00;;;;2054956;28;20243;-51
2021/05/25 03:31:58;;;;;;;1.23;0.50;;;;;21.00;99842.00;;;;2053054;28;20227;-49
2021/05/25 03:32:59;;;;;;;1.63;0.70;;;;;21.00;99837.00;;;;2047147;28;20279;-48
2021/05/25 03:33:59;;;;;;;0.63;0.40;;;;;21.00;99833.00;;;;2046635;28;20738;-51
2021/05/25 03:34:59;;;;;;;0.90;0.70;;;;;21.00;99834.00;;;;2049982;28;20274;-51
2021/05/25 03:36:00;;;;;;;1.13;0.50;;;;;21.00;99840.00;;;;2052153;28;20221;-52
2021/05/25 03:37:00;;;;;;;1.77;0.50;;;;;21.00;99842.00;;;;2047513;28;20216;-52
2021/05/25 03:38:00;;;;;;;1.83;0.70;;;;;21.00;99846.00;;;;2047149;28;20228;-50
2021/05/25 03:39:01;;;;;;;0.90;0.50;;;;;21.00;99841.00;;;;2047302;28;20579;-52
2021/05/25 03:40:03;;;;;;;0.70;0.50;;;;;21.00;99844.00;;;;2047170;28;20742;-52
2021/05/25 03:41:04;;;;;;;0.98;0.70;;;;;21.00;99854.00;;;;2046427;28;20229;-52
2021/05/25 03:42:05;;;;;;;1.60;0.60;;;;;21.00;99851.00;;;;2047277;28;20237;-52
2021/05/25 03:43:05;;;;;;;0.80;0.50;;;;;21.00;99852.00;;;;2044144;28;20216;-51
2021/05/25 03:44:06;;;;;;;0.70;0.40;;;;;21.00;99850.00;;;;2047293;28;20452;-52
2021/05/25 03:45:07;;;;;;;0.60;0.40;;;;;21.00;99852.00;;;;2047055;28;20597;-49
2021/05/25 03:46:07;;;;;;;1.00;0.57;;;;;21.00;99852.00;;;;2047623;28;20213;-51
2021/05/25 03:47:07;;;;;;;0.80;0.53;;;;;21.00;99850.00;;;;2047980;28;20213;-52
2021/05/25 03:48:08;;;;;;;0.73;0.50;;;;;20.90;99852.00;;;;2046727;28;20209;-52
2021/05/25 03:49:08;;;;;;;1.80;0.53;;;;;21.00;99856.00;;;;2049871;28;20221;-52
2021/05/25 03:50:10;;;;;;;0.70;0.40;;;;;21.00;99852.00;;;;2038216;29;20225;-51
2021/05/25 03:51:10;;;;;;;1.42;0.50;;;;;21.00;99854.00;;;;2037148;29;20226;-52
2021/05/25 03:52:10;;;;;;;0.80;0.60;;;;;20.90;99855.00;;;;2046709;28;20233;-53
2021/05/25 03:53:11;;;;;;;1.20;0.57;;;;;20.90;99853.00;;;;2046604;28;20201;-52
2021/05/25 03:54:19;;;;;;;0.77;0.50;;;;;21.00;99854.00;;;;2046741;28;20205;-50
2021/05/25 03:55:34;;;;;;;0.80;0.40;;;;;21.00;99851.00;;;;2046381;28;20577;-47
2021/05/25 03:56:47;;;;;;;0.80;0.60;;;;;21.00;99854.00;;;;2052927;28;20283;-52
2021/05/25 03:59:06;;;;;;;0.75;0.47;;;;;20.90;99852.00;;;;2054173;28;20220;-52
2021/05/25 04:00:08;;;;;;;0.90;0.53;;;;;21.00;99855.00;;;;2054614;28;20220;-52
2021/05/25 04:01:09;;;;;;;0.90;0.50;;;;;20.90;99849.00;;;;2054172;28;20558;-51
2021/05/25 04:02:09;;;;;;;2.20;0.57;;;;;20.90;99864.00;;;;2054950;28;20223;-50
2021/05/25 04:03:09;;;;;;;0.73;0.50;;;;;20.90;99856.00;;;;2055024;28;20681;-50
2021/05/25 04:04:10;;;;;;;1.00;0.70;;;;;20.90;99852.00;;;;2046577;29;20630;-51
2021/05/25 04:05:11;;;;;;;1.00;0.60;;;;;20.90;99846.00;;;;2046382;28;20731;-52
2021/05/25 04:06:11;;;;;;;1.03;0.40;;;;;20.90;99857.00;;;;2055078;28;20310;-52
2021/05/25 04:07:11;;;;;;;1.13;0.70;;;;;20.90;99856.00;;;;2055041;28;20220;-49
2021/05/25 04:08:12;;;;;;;0.90;0.50;;;;;20.90;99861.00;;;;2054952;28;20228;-50
2021/05/25 04:09:12;;;;;;;0.90;0.60;;;;;20.90;99861.00;;;;2054882;28;20243;-47
2021/05/25 04:10:13;;;;;;;0.87;0.50;;;;;20.90;99860.00;;;;2054986;28;20234;-49
2021/05/25 04:11:14;;;;;;;0.67;0.40;;;;;20.90;99855.00;;;;2054033;28;20235;-50
2021/05/25 04:12:14;;;;;;;0.85;0.40;;;;;20.90;99857.00;;;;2054758;28;20247;-52
2021/05/25 04:13:15;;;;;;;0.70;0.40;;;;;20.90;99856.00;;;;2054471;28;20581;-52
2021/05/25 04:14:15;;;;;;;0.60;0.40;;;;;20.90;99854.00;;;;2054831;28;20781;-51
2021/05/25 04:15:16;;;;;;;1.23;0.60;;;;;20.90;99857.00;;;;2055104;28;20227;-52
2021/05/25 04:16:17;;;;;;;0.70;0.50;;;;;20.90;99872.00;;;;2054909;28;20212;-52
2021/05/25 04:17:17;;;;;;;0.70;0.50;;;;;20.90;99862.00;;;;2051827;28;20240;-52
2021/05/25 04:18:18;;;;;;;0.97;0.50;;;;;20.90;99864.00;;;;2040963;29;20353;-49
2021/05/25 04:19:18;;;;;;;1.47;0.77;;;;;20.90;99869.00;;;;2040817;29;20217;-50
2021/05/25 04:20:18;;;;;;;0.93;0.50;;;;;20.90;99866.00;;;;2046905;28;20218;-51
2021/05/25 04:21:19;;;;;;;0.90;0.50;;;;;20.90;99866.00;;;;2045966;28;20225;-47
2021/05/25 04:22:19;;;;;;;0.70;0.40;;;;;20.90;99872.00;;;;2046867;28;20217;-50
2021/05/25 04:23:19;;;;;;;1.00;0.53;;;;;20.90;99864.00;;;;2046377;28;20300;-51
2021/05/25 04:24:20;;;;;;;0.87;0.50;;;;;20.90;99866.00;;;;2047057;28;20215;-51
2021/05/25 04:25:20;;;;;;;0.80;0.60;;;;;20.90;99871.00;;;;2047060;28;20247;-50
2021/05/25 04:26:20;;;;;;;0.80;0.50;;;;;20.90;99874.00;;;;2047051;28;20216;-50
2021/05/25 04:27:21;;;;;;;1.07;0.50;;;;;20.90;99871.00;;;;2046981;28;20822;-51
2021/05/25 04:28:21;;;;;;;0.80;0.50;;;;;20.90;99871.00;;;;2044252;28;20702;-52
2021/05/25 04:29:21;;;;;;;0.67;0.47;;;;;20.90;99865.00;;;;2047006;28;20227;-51
2021/05/25 04:30:22;;;;;;;1.03;0.40;;;;;20.90;99874.00;;;;2047137;28;20305;-51
2021/05/25 04:31:22;;;;;;;1.00;0.57;;;;;20.90;99869.00;;;;2046077;28;20232;-49
2021/05/25 04:32:23;;;;;;;0.70;0.40;;;;;20.90;99872.00;;;;2046970;28;20237;-48
2021/05/25 04:33:23;;;;;;;0.60;0.50;;;;;20.90;99875.00;;;;2045944;28;20226;-50
2021/05/25 04:34:23;;;;;;;0.70;0.40;;;;;20.90;99867.00;;;;2046457;28;20212;-52
2021/05/25 04:35:24;;;;;;;0.73;0.40;;;;;20.90;99873.00;;;;2046410;28;20213;-48
2021/05/25 04:36:24;;;;;;;0.77;0.40;;;;;20.90;99873.00;;;;2046781;28;20633;-51
2021/05/25 04:37:25;;;;;;;0.70;0.50;;;;;20.90;99873.00;;;;2047014;28;20205;-49
2021/05/25 04:38:25;;;;;;;0.70;0.40;;;;;20.90;99882.00;;;;2043683;28;20232;-50
2021/05/25 04:39:25;;;;;;;0.70;0.43;;;;;20.90;99884.00;;;;2046236;28;20216;-50
2021/05/25 04:40:26;;;;;;;0.60;0.40;;;;;20.90;99879.00;;;;2052897;28;20216;-51
2021/05/25 04:41:27;;;;;;;0.80;0.50;;;;;20.90;99884.00;;;;2053004;28;20216;-51
2021/05/25 04:42:28;;;;;;;0.80;0.40;;;;;20.90;99880.00;;;;2054080;28;20211;-51
2021/05/25 04:43:28;;;;;;;0.80;0.40;;;;;20.90;99884.00;;;;2051611;28;20274;-51
2021/05/25 04:44:28;;;;;;;3.10;0.40;;;;;20.90;99879.00;;;;2049389;28;20209;-51
2021/05/25 04:45:29;;;;;;;0.60;0.50;;;;;20.90;99887.00;;;;2045732;28;20227;-48
2021/05/25 04:46:29;;;;;;;0.67;0.40;;;;;20.90;99876.00;;;;2048654;28;20303;-49
2021/05/25 04:47:29;;;;;;;1.73;0.50;;;;;20.90;99888.00;;;;2048111;28;20213;-51
2021/05/25 04:48:30;;;;;;;1.77;0.50;;;;;20.90;99884.00;;;;2047917;28;20379;-51
2021/05/25 04:49:32;;;;;;;1.37;0.70;;;;;20.90;99882.00;;;;2047990;28;20236;-51
2021/05/25 04:50:33;;;;;;;1.05;0.90;;;;;20.90;99880.00;;;;2046850;28;20238;-52
2021/05/25 04:51:33;;;;;;;0.70;0.50;;;;;20.90;99887.00;;;;2045817;28;21003;-50
2021/05/25 04:52:34;;;;;;;0.60;0.40;;;;;20.90;99883.00;;;;2053982;28;20447;-51
2021/05/25 04:53:34;;;;;;;0.60;0.40;;;;;20.90;99888.00;;;;2051636;28;20223;-52
2021/05/25 04:54:34;;;;;;;0.80;0.40;;;;;20.90;99880.00;;;;2053675;28;20696;-51
2021/05/25 04:55:35;;;;;;;0.83;0.53;;;;;20.80;99883.00;;;;2049827;28;20237;-49
2021/05/25 04:56:35;;;;;;;0.63;0.47;;;;;20.90;99868.00;;;;2046811;28;20757;-51
2021/05/25 04:57:36;;;;;;;0.60;0.30;;;;;20.90;99880.00;;;;2046913;28;20212;-52
2021/05/25 04:58:36;;;;;;;1.00;0.40;;;;;20.80;99877.00;;;;2034819;28;20579;-51
2021/05/25 04:59:37;;;;;;;0.67;0.40;;;;;20.80;99884.00;;;;2046271;28;20215;-52
2021/05/25 05:00:37;;;;;;;1.20;0.50;;;;;20.90;99880.00;;;;2046539;28;20205;-49
2021/05/25 05:01:37;;;;;;;0.70;0.43;;;;;20.90;99886.00;;;;2045912;28;20555;-51
2021/05/25 05:02:38;;;;;;;0.60;0.50;;;;;20.80;99876.00;;;;2053685;28;20303;-52
2021/05/25 05:03:38;;;;;;;1.07;0.50;;;;;20.90;99882.00;;;;2054720;28;20220;-52
2021/05/25 05:04:38;;;;;;;0.90;0.50;;;;;20.80;99877.00;;;;2047468;28;20629;-51
2021/05/25 05:05:39;;;;;;;0.83;0.50;;;;;20.80;99874.00;;;;2046797;28;20216;-49
2021/05/25 05:06:40;;;;;;;1.30;0.50;;;;;20.80;99873.00;;;;2046648;28;20213;-51